createdAt,value
2023-11-27T00:01:51.735Z,88.93
2023-11-27T00:04:21.454Z,88.67
2023-11-27T00:06:55.698Z,87.31
2023-11-27T00:09:27.831Z,87.08
2023-11-27T00:12:11.799Z,85.88
2023-11-27T00:17:40.535Z,87.33
2023-11-27T00:20:20.140Z,87.46
2023-11-27T00:23:28.432Z,84.80
2023-11-27T00:26:09.612Z,84.28
2023-11-27T00:28:47.523Z,83.54
2023-11-27T00:31:39.550Z,82.75
2023-11-27T00:34:34.060Z,82.70
2023-11-27T00:37:23.784Z,81.77
2023-11-27T00:40:25.777Z,81.14
2023-11-27T00:43:06.125Z,79.96
2023-11-27T00:45:36.001Z,79.62
2023-11-27T00:48:10.984Z,78.96
2023-11-27T00:50:43.596Z,80.08
2023-11-27T00:55:56.281Z,78.11
2023-11-27T00:58:23.371Z,79.92
2023-11-27T01:00:51.086Z,78.97
2023-11-27T01:03:18.333Z,78.45
2023-11-27T01:05:49.068Z,78.92
2023-11-27T01:08:17.384Z,78.33
2023-11-27T01:10:44.815Z,77.73
2023-11-27T01:13:12.410Z,77.50
2023-11-27T01:15:39.997Z,79.29
2023-11-27T01:18:08.737Z,77.64
2023-11-27T01:20:36.243Z,78.47
2023-11-27T01:23:03.785Z,76.44
2023-11-27T01:25:31.458Z,76.29
2023-11-27T01:28:16.651Z,77.79
2023-11-27T01:30:54.580Z,75.99
2023-11-27T01:33:27.525Z,76.38
2023-11-27T01:35:56.049Z,77.35
2023-11-27T01:38:24.796Z,76.99
2023-11-27T01:41:17.979Z,76.43
2023-11-27T01:43:47.701Z,76.63
2023-11-27T01:46:29.302Z,75.92
2023-11-27T01:49:04.901Z,77.42
2023-11-27T01:51:42.519Z,77.45
2023-11-27T01:54:17.512Z,84.40
2023-11-27T01:56:56.557Z,83.89
2023-11-27T01:59:32.710Z,79.79
2023-11-27T02:02:10.057Z,77.71
2023-11-27T02:04:48.165Z,77.67
2023-11-27T02:07:28.615Z,76.61
2023-11-27T02:10:04.849Z,76.73
2023-11-27T02:12:39.795Z,76.27
2023-11-27T02:15:11.577Z,79.30
2023-11-27T02:17:46.066Z,77.69
2023-11-27T02:20:29.435Z,76.32
2023-11-27T02:23:07.697Z,74.81
2023-11-27T02:25:49.321Z,74.89
2023-11-27T02:31:15.055Z,73.36
2023-11-27T02:33:49.424Z,74.27
2023-11-27T02:36:17.593Z,74.81
2023-11-27T02:39:09.069Z,74.60
2023-11-27T02:41:51.004Z,72.90
2023-11-27T02:44:29.338Z,74.00
2023-11-27T02:49:54.265Z,73.55
2023-11-27T02:52:30.344Z,74.19
2023-11-27T02:55:06.996Z,74.09
2023-11-27T02:57:45.390Z,74.24
2023-11-27T03:00:24.853Z,73.89
2023-11-27T03:03:32.761Z,73.09
2023-11-27T03:06:50.371Z,72.27
2023-11-27T03:09:31.977Z,73.93
2023-11-27T03:12:09.823Z,74.11
2023-11-27T03:14:59.851Z,73.43
2023-11-27T03:17:57.266Z,73.53
2023-11-27T03:20:38.728Z,73.14
2023-11-27T03:23:15.400Z,73.48
2023-11-27T03:31:33.513Z,74.51
2023-11-27T03:37:24.830Z,73.52
2023-11-27T03:39:59.425Z,74.40
2023-11-27T03:42:45.358Z,75.01
2023-11-27T03:45:27.086Z,74.08
2023-11-27T03:48:19.403Z,75.30
2023-11-27T03:55:05.967Z,74.05
2023-11-27T03:57:42.361Z,74.91
2023-11-27T04:00:46.823Z,75.68
2023-11-27T04:03:22.170Z,76.82
2023-11-27T04:06:40.002Z,75.35
2023-11-27T04:09:25.781Z,75.06
2023-11-27T04:12:05.874Z,76.29
2023-11-27T04:18:13.272Z,75.58
2023-11-27T04:21:22.119Z,75.39
2023-11-27T04:24:41.866Z,75.70
2023-11-27T04:44:11.975Z,74.94
2023-11-27T04:48:01.526Z,75.02
2023-11-27T04:55:12.597Z,74.06
2023-11-27T04:58:11.947Z,73.93
2023-11-27T05:14:54.484Z,73.67
2023-11-27T05:18:58.853Z,73.32
2023-11-27T06:02:40.598Z,69.66
2023-11-27T06:58:34.842Z,68.94
2023-11-27T08:59:38.443Z,62.13
2023-11-27T12:42:58.492Z,46.47
2023-11-27T12:46:41.170Z,46.30
2023-11-27T13:03:34.537Z,47.21
2023-11-27T14:17:47.168Z,51.48
2023-11-27T14:21:18.383Z,52.10
2023-11-27T14:24:57.201Z,52.62
2023-11-27T16:47:20.333Z,63.25
2023-11-27T16:51:00.234Z,63.39
2023-11-27T16:58:24.006Z,63.64
2023-11-27T17:10:56.964Z,64.09
2023-11-27T19:07:13.360Z,74.94
2023-11-27T20:08:30.919Z,76.21
2023-11-27T20:12:23.487Z,76.96
2023-11-27T20:16:35.229Z,76.83
2023-11-27T20:20:59.288Z,76.79
2023-11-27T20:37:17.492Z,78.18
2023-11-27T21:07:19.560Z,80.11
2023-11-27T21:15:18.747Z,79.44
2023-11-27T21:19:23.760Z,78.85
2023-11-27T21:23:30.924Z,79.13
2023-11-27T21:26:31.584Z,79.40
2023-11-27T21:51:11.343Z,79.83
2023-11-27T21:58:48.663Z,79.75
2023-11-27T22:33:34.506Z,80.93
2023-11-27T22:41:25.938Z,80.97
2023-11-27T22:49:20.204Z,80.91
2023-11-27T22:56:38.450Z,81.03
2023-11-27T23:01:03.274Z,81.01
2023-11-27T23:07:54.506Z,81.61
2023-11-27T23:10:42.083Z,81.62
2023-11-27T23:18:02.521Z,81.45
2023-11-27T23:20:47.220Z,81.65
2023-11-27T23:23:30.515Z,81.12
2023-11-27T23:26:49.450Z,80.59
2023-11-27T23:33:09.812Z,81.11
2023-11-27T23:35:51.352Z,81.35
2023-11-27T23:38:54.891Z,81.87
2023-11-27T23:41:37.179Z,82.03
2023-11-27T23:44:22.597Z,81.98
2023-11-27T23:47:01.049Z,81.98
2023-11-27T23:49:52.825Z,82.13
2023-11-27T23:52:32.170Z,81.70
2023-11-27T23:55:18.978Z,81.75
2023-11-27T23:58:03.684Z,81.60
